Time;durP1;ratioP1;P1;durP2;ratioP2;P2;SDS_P1;SDS_P2;PMS_P1;PMS_P2;Temp;Humidity;BMP_temperature;BMP_pressure;BME280_temperature;BME280_humidity;BME280_pressure;Samples;Min_cycle;Max_cycle;Signal;HPM_P1;HPM_P2
2022/05/16 00:00:26;;;;;;;0.00;0.00;;;18.70;85.70;;;;;;4999536;28;20022;-72
2022/05/16 00:02:53;;;;;;;0.00;0.00;;;18.60;87.00;;;;;;4999707;28;20018;-73
2022/05/16 00:05:19;;;;;;;0.00;0.00;;;18.60;86.00;;;;;;5000158;28;20265;-73
2022/05/16 00:07:45;;;;;;;0.00;0.00;;;18.60;85.70;;;;;;5000514;28;20042;-72
2022/05/16 00:10:11;;;;;;;0.00;0.00;;;18.50;86.20;;;;;;4998980;28;20046;-73
2022/05/16 00:12:38;;;;;;;0.00;0.00;;;18.50;86.40;;;;;;5015113;28;20045;-73
2022/05/16 00:15:06;;;;;;;0.00;0.00;;;18.50;86.80;;;;;;4999760;28;20030;-73
2022/05/16 00:17:31;;;;;;;0.00;0.00;;;18.50;87.40;;;;;;5000039;28;20026;-72
2022/05/16 00:19:57;;;;;;;0.00;0.00;;;18.40;87.30;;;;;;4999410;28;20053;-73
2022/05/16 00:22:25;;;;;;;0.00;0.00;;;18.40;87.50;;;;;;5000144;28;20037;-73
2022/05/16 00:24:51;;;;;;;0.00;0.00;;;18.40;87.70;;;;;;4999444;28;20026;-73
2022/05/16 00:27:17;;;;;;;0.00;0.00;;;18.40;87.90;;;;;;4999336;28;20026;-72
2022/05/16 00:29:42;;;;;;;0.00;0.00;;;18.40;87.70;;;;;;5014433;28;20034;-73
2022/05/16 00:32:09;;;;;;;0.00;0.00;;;18.30;87.70;;;;;;4998739;28;20022;-73
2022/05/16 00:34:35;;;;;;;0.00;0.00;;;18.30;88.00;;;;;;5000039;28;20018;-72
2022/05/16 00:37:01;;;;;;;0.00;0.00;;;18.30;87.30;;;;;;5014339;28;20028;-72
2022/05/16 00:39:26;;;;;;;0.00;0.00;;;18.30;87.50;;;;;;5014694;28;20045;-73
2022/05/16 00:41:53;;;;;;;0.00;0.00;;;18.30;88.20;;;;;;5014434;28;20023;-74
2022/05/16 00:44:20;;;;;;;0.00;0.00;;;18.30;88.60;;;;;;5014756;28;20022;-73
2022/05/16 00:46:48;;;;;;;0.00;0.00;;;18.20;88.50;;;;;;4999758;28;20027;-72
2022/05/16 00:49:30;;;;;;;0.00;0.00;;;18.20;88.20;;;;;;5003375;28;20069;-72
2022/05/16 00:52:02;;;;;;;0.00;0.00;;;18.20;88.80;;;;;;5003217;28;20097;-73
2022/05/16 00:55:00;;;;;;;0.00;0.00;;;18.10;88.80;;;;;;5002267;28;20026;-72
2022/05/16 00:57:31;;;;;;;0.00;0.00;;;18.10;88.60;;;;;;4984464;28;20034;-72
2022/05/16 01:00:22;;;;;;;0.00;0.00;;;18.20;89.30;;;;;;5002925;28;20126;-72
2022/05/16 01:05:38;;;;;;;0.00;0.00;;;18.10;87.80;;;;;;5002999;28;20037;-72
2022/05/16 01:08:12;;;;;;;0.00;0.00;;;18.00;87.20;;;;;;5002342;28;20029;-73
2022/05/16 01:10:38;;;;;;;0.00;0.00;;;18.10;87.30;;;;;;5003293;28;20026;-73
2022/05/16 01:13:05;;;;;;;0.00;0.00;;;18.00;87.10;;;;;;5002233;28;20317;-73
2022/05/16 01:15:44;;;;;;;0.00;0.00;;;18.10;87.90;;;;;;5018171;28;20026;-73
2022/05/16 01:18:14;;;;;;;0.00;0.00;;;18.00;87.50;;;;;;5017654;28;20022;-73
2022/05/16 01:21:01;;;;;;;0.00;0.00;;;18.00;87.70;;;;;;5002907;28;20042;-73
2022/05/16 01:23:31;;;;;;;0.00;0.00;;;18.00;87.00;;;;;;5001878;28;20215;-72
2022/05/16 01:25:59;;;;;;;0.00;0.00;;;18.00;87.10;;;;;;5017368;28;20137;-72
2022/05/16 01:28:25;;;;;;;0.00;0.00;;;17.90;86.80;;;;;;5002805;28;20097;-73
2022/05/16 01:30:54;;;;;;;0.00;0.00;;;17.90;87.20;;;;;;5017225;28;20026;-72
2022/05/16 01:33:22;;;;;;;0.00;0.00;;;17.80;87.00;;;;;;5001312;28;20018;-73
2022/05/16 01:35:49;;;;;;;0.00;0.00;;;17.80;88.10;;;;;;5017675;28;20301;-72
2022/05/16 01:38:21;;;;;;;0.00;0.00;;;17.80;88.70;;;;;;5002800;28;20052;-73
2022/05/16 01:41:03;;;;;;;0.00;0.00;;;17.70;87.20;;;;;;5017562;28;20025;-72
2022/05/16 01:43:36;;;;;;;0.00;0.00;;;17.70;87.40;;;;;;5017636;28;20030;-72
2022/05/16 01:46:02;;;;;;;0.00;0.00;;;17.60;88.20;;;;;;5002152;28;20014;-73
2022/05/16 01:48:30;;;;;;;0.00;0.00;;;17.60;88.30;;;;;;5002183;28;20038;-73
2022/05/16 01:51:02;;;;;;;0.00;0.00;;;17.60;89.10;;;;;;5001954;28;20041;-72
2022/05/16 01:53:28;;;;;;;0.00;0.00;;;17.60;89.00;;;;;;5001180;28;20032;-72
2022/05/16 01:55:54;;;;;;;0.00;0.00;;;17.50;88.50;;;;;;5016955;28;20306;-73
2022/05/16 01:58:20;;;;;;;0.00;0.00;;;17.50;88.50;;;;;;5000432;28;20023;-72
2022/05/16 02:00:46;;;;;;;0.00;0.00;;;17.50;89.10;;;;;;5001967;28;20034;-71
2022/05/16 02:03:12;;;;;;;0.00;0.00;;;17.50;88.50;;;;;;5001401;28;20022;-72
2022/05/16 02:05:41;;;;;;;0.00;0.00;;;17.40;88.80;;;;;;5000794;28;20105;-72
2022/05/16 02:08:07;;;;;;;0.00;0.00;;;17.40;88.40;;;;;;5016124;28;20256;-73
2022/05/16 02:10:33;;;;;;;0.00;0.00;;;17.40;89.30;;;;;;5002201;28;20209;-72
2022/05/16 02:12:59;;;;;;;0.00;0.00;;;17.40;88.90;;;;;;5016556;28;20098;-72
2022/05/16 02:15:29;;;;;;;0.00;0.00;;;17.40;89.60;;;;;;5017171;28;20241;-72
2022/05/16 02:18:13;;;;;;;0.00;0.00;;;17.30;89.50;;;;;;5016471;28;20029;-72
2022/05/16 02:20:39;;;;;;;0.00;0.00;;;17.30;89.20;;;;;;5001748;28;20022;-72
2022/05/16 02:25:51;;;;;;;0.00;0.00;;;17.20;88.90;;;;;;5000988;28;20025;-72
2022/05/16 02:28:18;;;;;;;0.00;0.00;;;17.20;88.50;;;;;;5001600;28;20049;-72
2022/05/16 02:30:45;;;;;;;0.00;0.00;;;17.10;89.20;;;;;;5016767;28;20090;-73
2022/05/16 02:33:13;;;;;;;0.00;0.00;;;17.10;89.90;;;;;;5016101;28;20022;-73
2022/05/16 02:35:39;;;;;;;0.00;0.00;;;17.10;89.00;;;;;;5016518;28;20023;-73
2022/05/16 02:38:06;;;;;;;0.00;0.00;;;17.10;89.50;;;;;;4999786;28;20293;-73
2022/05/16 02:40:34;;;;;;;0.00;0.00;;;17.10;89.50;;;;;;5001596;28;20037;-73
2022/05/16 02:42:59;;;;;;;0.00;0.00;;;17.00;89.60;;;;;;5000944;28;20029;-73
2022/05/16 02:45:26;;;;;;;0.00;0.00;;;17.00;90.10;;;;;;5001550;28;20026;-72
2022/05/16 02:47:52;;;;;;;0.00;0.00;;;17.00;90.00;;;;;;5000947;28;20037;-73
2022/05/16 02:50:19;;;;;;;0.00;0.00;;;17.00;90.10;;;;;;5001201;28;20034;-73
2022/05/16 02:52:45;;;;;;;0.00;0.00;;;17.00;90.50;;;;;;5001199;28;20179;-73
2022/05/16 02:55:11;;;;;;;0.00;0.00;;;16.90;90.20;;;;;;5015651;28;20023;-74
2022/05/16 02:57:38;;;;;;;0.00;0.00;;;16.90;90.20;;;;;;5016238;28;20102;-73
2022/05/16 03:00:08;;;;;;;0.00;0.00;;;16.90;90.70;;;;;;5015828;28;20030;-73
2022/05/16 03:02:35;;;;;;;0.00;0.00;;;16.90;90.60;;;;;;4999876;28;20049;-73
2022/05/16 03:05:00;;;;;;;0.00;0.00;;;16.90;90.60;;;;;;5015650;28;20060;-73
2022/05/16 03:07:26;;;;;;;0.00;0.00;;;16.90;90.70;;;;;;5001133;28;20030;-73
2022/05/16 03:09:52;;;;;;;0.00;0.00;;;16.90;90.70;;;;;;4999852;28;20046;-73
2022/05/16 03:12:17;;;;;;;0.00;0.00;;;16.90;90.60;;;;;;4999632;28;20318;-73
2022/05/16 03:14:43;;;;;;;0.00;0.00;;;16.90;90.70;;;;;;5000943;28;20113;-73
2022/05/16 03:17:09;;;;;;;0.00;0.00;;;16.80;90.50;;;;;;5015397;28;20298;-73
2022/05/16 03:19:35;;;;;;;0.00;0.00;;;16.80;90.80;;;;;;5000802;28;20022;-73
2022/05/16 03:22:05;;;;;;;0.00;0.00;;;16.80;90.90;;;;;;5000209;28;20049;-72
2022/05/16 03:24:32;;;;;;;0.00;0.00;;;16.80;90.80;;;;;;5000660;28;20022;-73
2022/05/16 03:26:59;;;;;;;0.00;0.00;;;16.80;91.20;;;;;;5000021;28;20081;-73
2022/05/16 03:29:25;;;;;;;0.00;0.00;;;16.80;91.10;;;;;;5000309;28;20053;-73
2022/05/16 03:31:51;;;;;;;0.00;0.00;;;16.80;91.20;;;;;;4999949;28;20037;-73
2022/05/16 03:34:17;;;;;;;0.00;0.00;;;16.80;91.20;;;;;;5000345;28;20025;-74
2022/05/16 03:36:43;;;;;;;0.00;0.00;;;16.80;90.90;;;;;;5000274;28;20309;-73
2022/05/16 03:41:53;;;;;;;0.00;0.00;;;16.80;91.50;;;;;;4999757;28;20375;-73
2022/05/16 03:44:20;;;;;;;0.00;0.00;;;16.80;91.40;;;;;;5015355;28;20022;-73
2022/05/16 03:46:46;;;;;;;0.00;0.00;;;16.70;91.10;;;;;;5015443;28;20155;-72
2022/05/16 03:49:12;;;;;;;0.00;0.00;;;16.70;91.30;;;;;;4999447;28;20046;-73
2022/05/16 03:51:38;;;;;;;0.00;0.00;;;16.80;91.00;;;;;;5000234;28;20018;-72
2022/05/16 03:54:05;;;;;;;0.00;0.00;;;16.70;91.30;;;;;;4999796;28;20026;-72
2022/05/16 03:56:31;;;;;;;0.00;0.00;;;16.80;91.50;;;;;;4999907;28;20022;-72
2022/05/16 03:58:57;;;;;;;0.00;0.00;;;16.80;91.60;;;;;;4999336;28;20246;-72
2022/05/16 04:01:24;;;;;;;0.00;0.00;;;16.80;92.20;;;;;;4998883;28;20050;-72
2022/05/16 04:03:50;;;;;;;0.00;0.00;;;16.80;91.50;;;;;;4999665;28;20324;-72
2022/05/16 04:06:16;;;;;;;0.00;0.00;;;16.80;91.30;;;;;;4999479;28;20360;-72
2022/05/16 04:08:42;;;;;;;0.00;0.00;;;16.80;91.40;;;;;;4999718;28;20050;-72
2022/05/16 04:11:09;;;;;;;0.00;0.00;;;16.80;91.20;;;;;;5014393;28;20029;-72
2022/05/16 04:13:36;;;;;;;0.00;0.00;;;16.80;91.60;;;;;;5000383;28;20053;-73
2022/05/16 04:16:03;;;;;;;0.00;0.00;;;16.80;91.50;;;;;;4999274;28;20048;-73
2022/05/16 04:18:29;;;;;;;0.00;0.00;;;16.80;91.40;;;;;;5014900;28;20026;-73
2022/05/16 04:20:55;;;;;;;0.00;0.00;;;16.90;91.30;;;;;;4999269;28;20018;-73
2022/05/16 04:23:20;;;;;;;0.00;0.00;;;16.80;91.10;;;;;;5005555;28;20026;-74
2022/05/16 04:25:46;;;;;;;0.00;0.00;;;16.80;91.40;;;;;;5006238;28;20210;-72
2022/05/16 04:28:12;;;;;;;0.00;0.00;;;16.90;91.60;;;;;;5005614;28;20193;-72
2022/05/16 04:30:39;;;;;;;0.00;0.00;;;16.90;91.50;;;;;;5006055;28;20046;-71
2022/05/16 04:33:06;;;;;;;0.00;0.00;;;16.90;91.60;;;;;;5026721;28;20029;-72
2022/05/16 04:35:32;;;;;;;0.00;0.00;;;16.90;91.60;;;;;;5010529;28;20018;-73
2022/05/16 04:37:58;;;;;;;0.00;0.00;;;16.90;91.70;;;;;;5009742;28;20069;-73
2022/05/16 04:40:24;;;;;;;0.00;0.00;;;17.00;92.40;;;;;;5007599;28;20254;-73
2022/05/16 04:42:50;;;;;;;0.00;0.00;;;17.00;92.20;;;;;;5021571;28;20026;-73
2022/05/16 04:45:17;;;;;;;0.00;0.00;;;16.90;91.80;;;;;;5020858;28;20092;-72
2022/05/16 04:47:45;;;;;;;0.00;0.00;;;16.90;91.60;;;;;;5006289;28;20028;-73
2022/05/16 04:50:14;;;;;;;0.00;0.00;;;16.90;91.90;;;;;;5006277;28;20022;-73
2022/05/16 04:52:40;;;;;;;0.00;0.00;;;16.90;92.40;;;;;;5006379;28;20044;-73
2022/05/16 04:55:07;;;;;;;0.00;0.00;;;17.00;92.40;;;;;;5004797;28;20302;-74
2022/05/16 04:57:32;;;;;;;0.00;0.00;;;17.00;92.10;;;;;;5006671;28;20114;-72
2022/05/16 04:59:58;;;;;;;0.00;0.00;;;16.90;91.70;;;;;;5021007;28;20022;-73
2022/05/16 05:02:24;;;;;;;0.00;0.00;;;16.90;91.90;;;;;;5021262;28;20022;-73
2022/05/16 05:04:50;;;;;;;0.00;0.00;;;16.90;92.00;;;;;;5021468;28;20019;-74
2022/05/16 05:07:15;;;;;;;0.00;0.00;;;17.00;92.10;;;;;;5021084;28;20056;-74
2022/05/16 05:15:14;;;;;;;0.00;0.00;;;17.00;91.50;;;;;;5005433;28;20025;-72
2022/05/16 05:17:41;;;;;;;0.00;0.00;;;17.00;91.30;;;;;;5021256;28;20195;-72
2022/05/16 05:20:12;;;;;;;0.00;0.00;;;17.00;91.70;;;;;;5003066;28;20022;-72
2022/05/16 05:22:40;;;;;;;0.00;0.00;;;17.00;91.70;;;;;;5006000;28;20022;-72
2022/05/16 05:25:05;;;;;;;0.00;0.00;;;17.00;92.10;;;;;;5005592;28;20082;-72
2022/05/16 05:27:32;;;;;;;0.00;0.00;;;17.10;92.00;;;;;;5005999;28;20018;-72
2022/05/16 05:29:57;;;;;;;0.00;0.00;;;17.10;92.10;;;;;;5020043;28;20038;-72
2022/05/16 05:32:23;;;;;;;0.00;0.00;;;17.20;92.10;;;;;;5005675;28;20071;-73
2022/05/16 05:34:49;;;;;;;0.00;0.00;;;17.20;91.80;;;;;;5001532;28;20022;-73
2022/05/16 05:37:16;;;;;;;0.00;0.00;;;17.20;91.90;;;;;;5017440;28;20076;-73
2022/05/16 05:39:42;;;;;;;0.00;0.00;;;17.20;91.50;;;;;;5002794;28;20023;-73
2022/05/16 05:42:08;;;;;;;0.00;0.00;;;17.30;91.60;;;;;;5001888;28;20090;-72
2022/05/16 05:44:33;;;;;;;0.00;0.00;;;17.30;91.40;;;;;;5002490;28;20033;-72
2022/05/16 05:47:00;;;;;;;0.00;0.00;;;17.30;91.70;;;;;;5002117;28;20155;-72
2022/05/16 05:49:26;;;;;;;0.00;0.00;;;17.40;92.00;;;;;;5001413;28;20130;-73
2022/05/16 05:51:52;;;;;;;0.00;0.00;;;17.40;91.90;;;;;;5002453;28;20018;-72
2022/05/16 05:54:17;;;;;;;0.00;0.00;;;17.50;90.90;;;;;;5001638;28;20026;-73
2022/05/16 05:56:43;;;;;;;0.00;0.00;;;17.60;90.50;;;;;;5002478;28;20290;-72
2022/05/16 05:59:09;;;;;;;0.00;0.00;;;17.50;91.20;;;;;;5001469;28;20233;-72
2022/05/16 06:01:34;;;;;;;0.00;0.00;;;17.60;91.00;;;;;;5017623;28;20206;-72
2022/05/16 06:04:00;;;;;;;0.00;0.00;;;17.60;90.90;;;;;;5000326;28;20033;-73
2022/05/16 06:06:26;;;;;;;0.00;0.00;;;17.70;91.30;;;;;;5000898;28;20022;-74
2022/05/16 06:08:52;;;;;;;0.00;0.00;;;17.70;91.00;;;;;;5016886;28;20117;-74
2022/05/16 06:11:18;;;;;;;0.00;0.00;;;17.90;90.20;;;;;;5016811;28;20076;-74
2022/05/16 06:13:44;;;;;;;0.00;0.00;;;18.10;91.10;;;;;;5002274;28;20237;-75
2022/05/16 06:16:10;;;;;;;0.00;0.00;;;18.50;90.60;;;;;;5001255;28;20373;-74
2022/05/16 06:18:36;;;;;;;0.00;0.00;;;19.00;90.50;;;;;;5002176;28;20022;-74
2022/05/16 06:21:03;;;;;;;0.00;0.00;;;19.60;88.60;;;;;;5001397;28;20014;-75
2022/05/16 06:23:29;;;;;;;0.00;0.00;;;20.20;86.50;;;;;;5017133;28;20049;-74
2022/05/16 06:25:56;;;;;;;0.00;0.00;;;20.50;85.30;;;;;;5002145;28;20206;-76
2022/05/16 06:28:25;;;;;;;0.00;0.00;;;20.90;85.00;;;;;;5017066;28;20026;-75
2022/05/16 06:30:52;;;;;;;0.00;0.00;;;21.30;83.40;;;;;;5016984;28;20022;-75
2022/05/16 06:33:20;;;;;;;0.00;0.00;;;21.60;82.60;;;;;;5001475;28;20018;-74
2022/05/16 06:35:47;;;;;;;0.00;0.00;;;22.00;82.40;;;;;;5016893;28;20081;-75
2022/05/16 06:38:19;;;;;;;0.00;0.00;;;22.20;78.80;;;;;;5000317;28;20049;-74
2022/05/16 06:40:46;;;;;;;0.00;0.00;;;22.30;78.90;;;;;;5001866;28;20026;-74
2022/05/16 06:43:12;;;;;;;0.00;0.00;;;22.50;78.80;;;;;;5001106;28;20021;-74
2022/05/16 06:45:38;;;;;;;0.00;0.00;;;22.80;79.00;;;;;;5000824;28;20029;-76
2022/05/16 06:48:05;;;;;;;0.00;0.00;;;23.10;77.90;;;;;;5001005;28;20022;-73
2022/05/16 06:50:32;;;;;;;0.00;0.00;;;23.30;74.50;;;;;;5016483;28;20038;-74
2022/05/16 06:52:58;;;;;;;0.00;0.00;;;23.40;72.70;;;;;;5000653;28;20085;-74
2022/05/16 06:55:24;;;;;;;0.00;0.00;;;23.70;72.00;;;;;;5001506;28;20077;-75
2022/05/16 06:57:50;;;;;;;0.00;0.00;;;23.70;69.10;;;;;;5016454;28;20038;-75
2022/05/16 07:00:17;;;;;;;0.00;0.00;;;24.00;71.80;;;;;;5000995;28;20188;-73
2022/05/16 07:02:43;;;;;;;0.00;0.00;;;24.10;71.10;;;;;;5001574;28;20088;-73
2022/05/16 07:05:09;;;;;;;0.00;0.00;;;24.10;70.10;;;;;;5015886;28;20026;-74
2022/05/16 07:07:35;;;;;;;0.00;0.00;;;23.80;68.70;;;;;;5016629;28;20018;-73
2022/05/16 07:10:02;;;;;;;0.00;0.00;;;23.50;68.70;;;;;;5015251;28;20245;-74
2022/05/16 07:12:28;;;;;;;0.00;0.00;;;23.20;70.00;;;;;;5015871;28;20018;-75
2022/05/16 07:14:54;;;;;;;0.00;0.00;;;22.70;70.40;;;;;;5016219;28;20049;-74
2022/05/16 07:17:19;;;;;;;0.00;0.00;;;22.60;70.00;;;;;;5015653;28;20206;-75
2022/05/16 07:19:46;;;;;;;0.00;0.00;;;22.20;69.40;;;;;;4999963;28;20125;-75
2022/05/16 07:22:15;;;;;;;0.00;0.00;;;22.00;71.30;;;;;;5015697;28;20022;-74
2022/05/16 07:24:43;;;;;;;0.00;0.00;;;21.80;72.00;;;;;;5000729;28;20026;-73
2022/05/16 07:29:54;;;;;;;0.00;0.00;;;21.50;74.10;;;;;;5000586;28;20057;-74
2022/05/16 07:32:20;;;;;;;0.00;0.00;;;21.40;74.00;;;;;;4998600;28;20022;-74
2022/05/16 07:34:47;;;;;;;0.00;0.00;;;21.40;75.40;;;;;;5000742;28;20073;-75
2022/05/16 07:37:13;;;;;;;0.00;0.00;;;21.30;75.50;;;;;;5013219;28;20022;-75
2022/05/16 18:54:17;;;;;;;0.00;0.00;;;24.60;73.10;;;;;;5114708;27;20397;-71
2022/05/16 18:56:43;;;;;;;0.00;0.00;;;24.10;73.20;;;;;;5096067;28;20078;-72
2022/05/16 18:59:09;;;;;;;0.00;0.00;;;24.10;74.00;;;;;;5073342;28;20066;-74
2022/05/16 19:01:39;;;;;;;0.00;0.00;;;24.20;80.00;;;;;;5082703;28;20091;-72
2022/05/16 19:04:05;;;;;;;0.00;0.00;;;24.20;78.10;;;;;;5099933;28;20061;-72
2022/05/16 19:06:31;;;;;;;0.00;0.00;;;24.20;78.70;;;;;;5096718;28;20207;-72
2022/05/16 19:08:57;;;;;;;0.00;0.00;;;24.10;78.70;;;;;;5075219;28;20066;-73
2022/05/16 19:11:29;;;;;;;0.00;0.00;;;24.10;76.40;;;;;;5091463;28;20016;-72
2022/05/16 19:13:54;;;;;;;0.00;0.00;;;24.10;78.40;;;;;;5095853;28;20039;-71
2022/05/16 19:16:21;;;;;;;0.00;0.00;;;24.10;78.50;;;;;;5091114;28;20032;-70
2022/05/16 19:18:47;;;;;;;0.00;0.00;;;24.10;78.70;;;;;;5094359;28;20017;-71
2022/05/16 19:21:17;;;;;;;0.00;0.00;;;24.10;77.20;;;;;;5073030;28;20020;-72
2022/05/16 19:23:43;;;;;;;0.00;0.00;;;24.00;78.00;;;;;;5078644;28;20065;-72
2022/05/16 19:26:10;;;;;;;0.00;0.00;;;24.00;78.00;;;;;;5090825;28;20363;-72
2022/05/16 19:34:05;;;;;;;0.00;0.00;;;24.00;77.00;;;;;;5090827;28;20346;-73
2022/05/16 19:36:31;;;;;;;0.00;0.00;;;24.00;77.40;;;;;;5094438;28;20016;-73
2022/05/16 19:39:00;;;;;;;0.00;0.00;;;23.90;76.80;;;;;;5080345;28;20640;-74
2022/05/16 19:41:30;;;;;;;0.00;0.00;;;23.90;76.50;;;;;;5074339;28;20023;-74
2022/05/16 19:43:57;;;;;;;0.00;0.00;;;23.90;76.90;;;;;;5074173;28;20024;-71
2022/05/16 19:46:23;;;;;;;0.00;0.00;;;23.90;75.40;;;;;;5072001;28;20028;-72
2022/05/16 19:48:49;;;;;;;0.00;0.00;;;23.90;74.70;;;;;;5088688;28;20028;-71
2022/05/16 19:51:16;;;;;;;0.00;0.00;;;23.90;74.50;;;;;;5075572;28;20031;-72
2022/05/16 19:53:42;;;;;;;0.00;0.00;;;23.80;73.90;;;;;;5076193;28;20407;-72
2022/05/16 19:56:08;;;;;;;0.00;0.00;;;23.80;72.80;;;;;;5073214;28;20024;-74
2022/05/16 19:58:34;;;;;;;0.00;0.00;;;23.80;71.80;;;;;;5055489;28;20035;-72
2022/05/16 20:01:00;;;;;;;0.00;0.00;;;23.80;73.50;;;;;;5073858;28;20048;-71
2022/05/16 20:03:26;;;;;;;0.00;0.00;;;23.80;73.80;;;;;;5051310;28;20024;-73
2022/05/16 20:05:52;;;;;;;0.00;0.00;;;23.70;73.50;;;;;;5058220;28;20061;-71
2022/05/16 20:08:19;;;;;;;0.00;0.00;;;23.70;74.00;;;;;;5060483;28;20017;-73
2022/05/16 20:10:48;;;;;;;0.00;0.00;;;23.70;73.30;;;;;;5062971;28;20021;-73
2022/05/16 20:13:16;;;;;;;0.00;0.00;;;23.70;74.00;;;;;;5037662;28;20029;-73
2022/05/16 20:15:42;;;;;;;0.00;0.00;;;23.70;75.70;;;;;;5043667;28;20066;-73
2022/05/16 20:18:09;;;;;;;0.00;0.00;;;23.60;76.50;;;;;;5047079;28;20340;-74
2022/05/16 20:20:35;;;;;;;0.00;0.00;;;23.60;76.20;;;;;;5060211;28;20096;-71
2022/05/16 20:25:46;;;;;;;0.00;0.00;;;23.50;77.80;;;;;;5057071;28;20668;-72
2022/05/16 20:28:17;;;;;;;0.00;0.00;;;23.40;78.00;;;;;;5037917;28;20044;-72
2022/05/16 20:30:44;;;;;;;0.00;0.00;;;23.40;79.50;;;;;;5056835;28;20088;-72
2022/05/16 20:33:11;;;;;;;0.00;0.00;;;23.30;79.00;;;;;;5057716;28;20352;-73
2022/05/16 20:35:41;;;;;;;0.00;0.00;;;23.30;79.00;;;;;;5060560;28;20028;-72
2022/05/16 20:38:07;;;;;;;0.00;0.00;;;23.30;82.00;;;;;;5058796;28;20052;-73
2022/05/16 20:40:37;;;;;;;0.00;0.00;;;23.20;80.10;;;;;;5038831;28;20017;-71
2022/05/16 20:43:03;;;;;;;0.00;0.00;;;23.20;80.80;;;;;;5059463;28;20037;-75
2022/05/16 20:45:30;;;;;;;0.00;0.00;;;23.10;81.00;;;;;;5059044;28;20100;-72
2022/05/16 20:47:58;;;;;;;0.00;0.00;;;23.10;79.90;;;;;;5046652;28;20021;-71
2022/05/16 20:50:24;;;;;;;0.00;0.00;;;23.00;79.40;;;;;;5056497;28;20096;-73
2022/05/16 20:52:51;;;;;;;0.00;0.00;;;22.90;79.70;;;;;;5057058;28;20044;-71
2022/05/16 20:55:19;;;;;;;0.00;0.00;;;22.80;80.90;;;;;;5074987;28;20028;-71
2022/05/16 20:57:45;;;;;;;0.00;0.00;;;22.70;79.70;;;;;;5079302;28;20028;-72
2022/05/16 21:00:15;;;;;;;0.00;0.00;;;22.70;79.40;;;;;;5078729;28;20044;-71
2022/05/16 21:02:41;;;;;;;0.00;0.00;;;22.60;78.80;;;;;;5079258;28;20063;-72
2022/05/16 21:05:08;;;;;;;0.00;0.00;;;22.60;81.40;;;;;;5077563;28;20391;-73
2022/05/16 21:07:34;;;;;;;0.00;0.00;;;22.60;79.90;;;;;;5076400;28;20055;-72
2022/05/16 21:10:00;;;;;;;0.00;0.00;;;22.60;79.60;;;;;;5075432;28;20304;-74
2022/05/16 21:12:26;;;;;;;0.00;0.00;;;22.50;81.00;;;;;;5074675;28;20032;-71
2022/05/16 21:14:52;;;;;;;0.00;0.00;;;22.40;82.20;;;;;;5074740;28;20272;-73
2022/05/16 21:17:18;;;;;;;0.00;0.00;;;22.30;83.40;;;;;;5076291;28;20103;-73
2022/05/16 21:19:44;;;;;;;0.00;0.00;;;22.30;84.10;;;;;;5080916;28;20228;-72
2022/05/16 21:22:10;;;;;;;0.00;0.00;;;22.30;86.20;;;;;;5076014;28;20028;-72
2022/05/16 21:24:36;;;;;;;0.00;0.00;;;22.30;87.20;;;;;;5084706;28;20557;-72
2022/05/16 21:27:03;;;;;;;0.00;0.00;;;22.30;87.20;;;;;;5073677;28;20020;-73
2022/05/16 21:29:48;;;;;;;0.00;0.00;;;22.30;87.00;;;;;;5081107;28;20020;-72
2022/05/16 21:32:13;;;;;;;0.00;0.00;;;22.20;85.20;;;;;;5079094;28;20071;-72
2022/05/16 21:34:39;;;;;;;0.00;0.00;;;22.10;86.30;;;;;;5075184;28;20028;-72
2022/05/16 21:37:05;;;;;;;0.00;0.00;;;22.10;86.10;;;;;;5073700;28;20096;-73
2022/05/16 21:39:30;;;;;;;0.00;0.00;;;22.00;87.20;;;;;;5074579;28;20029;-72
2022/05/16 21:41:56;;;;;;;0.00;0.00;;;21.90;87.90;;;;;;5074057;28;20382;-73
2022/05/16 21:47:06;;;;;;;0.00;0.00;;;21.90;87.50;;;;;;5078085;28;20038;-71
2022/05/16 21:49:33;;;;;;;0.00;0.00;;;21.80;86.90;;;;;;5083944;28;20028;-73
2022/05/16 21:52:00;;;;;;;0.00;0.00;;;21.70;86.80;;;;;;5082654;28;20054;-72
2022/05/16 21:54:26;;;;;;;0.00;0.00;;;21.70;86.80;;;;;;5043566;28;20040;-72
2022/05/16 21:56:52;;;;;;;0.00;0.00;;;21.70;86.50;;;;;;5059129;28;20017;-72
2022/05/16 21:59:19;;;;;;;0.00;0.00;;;21.60;87.00;;;;;;5058016;28;20021;-74
2022/05/16 22:01:46;;;;;;;0.00;0.00;;;21.60;87.30;;;;;;5046138;28;20025;-72
2022/05/16 22:04:13;;;;;;;0.00;0.00;;;21.60;86.90;;;;;;5055160;28;20020;-72
2022/05/16 22:06:44;;;;;;;0.00;0.00;;;21.70;86.80;;;;;;5039737;28;20028;-73
2022/05/16 22:09:10;;;;;;;0.00;0.00;;;21.60;86.60;;;;;;5037045;28;20059;-73
2022/05/16 22:11:37;;;;;;;0.00;0.00;;;21.60;86.40;;;;;;5057079;28;20192;-72
2022/05/16 22:14:06;;;;;;;0.00;0.00;;;21.60;86.50;;;;;;5054573;28;20055;-73
2022/05/16 22:16:32;;;;;;;0.00;0.00;;;21.60;86.60;;;;;;5044573;28;20036;-72
2022/05/16 22:19:01;;;;;;;0.00;0.00;;;21.50;86.30;;;;;;5036452;28;20294;-73
2022/05/16 22:21:28;;;;;;;0.00;0.00;;;21.50;87.30;;;;;;5055003;28;20053;-72
2022/05/16 22:23:55;;;;;;;0.00;0.00;;;21.60;86.50;;;;;;5037868;28;20096;-72
2022/05/16 22:26:22;;;;;;;0.00;0.00;;;21.50;88.60;;;;;;5039982;28;20085;-72
2022/05/16 22:28:49;;;;;;;0.00;0.00;;;21.50;88.00;;;;;;5038694;28;20017;-74
2022/05/16 22:31:16;;;;;;;0.00;0.00;;;21.50;90.10;;;;;;5044185;28;20318;-73
2022/05/16 22:33:42;;;;;;;0.00;0.00;;;21.50;90.30;;;;;;5037606;28;20040;-73
2022/05/16 22:36:08;;;;;;;0.00;0.00;;;21.50;90.20;;;;;;5061266;28;20222;-73
2022/05/16 22:38:33;;;;;;;0.00;0.00;;;21.40;90.60;;;;;;5059945;28;20009;-72
2022/05/16 22:40:59;;;;;;;0.00;0.00;;;21.40;90.90;;;;;;5037657;28;20208;-72
2022/05/16 22:43:25;;;;;;;0.00;0.00;;;21.30;91.20;;;;;;5042445;28;20215;-72
2022/05/16 22:45:50;;;;;;;0.00;0.00;;;21.30;92.00;;;;;;5038192;28;20033;-72
2022/05/16 22:48:16;;;;;;;0.00;0.00;;;21.20;91.70;;;;;;5038472;28;20013;-73
2022/05/16 22:50:43;;;;;;;0.00;0.00;;;21.20;92.10;;;;;;5055167;28;20051;-73
2022/05/16 22:53:09;;;;;;;0.00;0.00;;;21.10;91.90;;;;;;5054941;28;20057;-73
2022/05/16 22:55:35;;;;;;;0.00;0.00;;;21.10;92.50;;;;;;5037460;28;20037;-73
2022/05/16 22:58:00;;;;;;;0.00;0.00;;;21.10;92.50;;;;;;5040657;28;20025;-73
2022/05/16 23:00:26;;;;;;;0.00;0.00;;;21.10;92.30;;;;;;5037667;28;20078;-73
2022/05/16 23:05:36;;;;;;;0.00;0.00;;;21.00;91.50;;;;;;5054412;28;20036;-73
2022/05/16 23:08:03;;;;;;;0.00;0.00;;;21.00;91.90;;;;;;5038343;28;20200;-74
2022/05/16 23:10:31;;;;;;;0.00;0.00;;;21.00;91.50;;;;;;5055176;28;20036;-72
2022/05/16 23:12:58;;;;;;;0.00;0.00;;;20.90;91.70;;;;;;5039334;28;20033;-71
2022/05/16 23:15:24;;;;;;;0.00;0.00;;;20.90;91.90;;;;;;5036331;28;20029;-72
2022/05/16 23:17:50;;;;;;;0.00;0.00;;;20.90;91.70;;;;;;5056807;28;20070;-73
2022/05/16 23:20:15;;;;;;;0.00;0.00;;;20.90;91.50;;;;;;5038696;28;20032;-73
2022/05/16 23:22:42;;;;;;;0.00;0.00;;;20.80;91.30;;;;;;5054094;28;20024;-73
2022/05/16 23:25:08;;;;;;;0.00;0.00;;;20.90;91.70;;;;;;5054294;28;20117;-72
2022/05/16 23:27:35;;;;;;;0.00;0.00;;;20.80;91.10;;;;;;5040720;28;20028;-72
2022/05/16 23:30:01;;;;;;;0.00;0.00;;;20.80;91.60;;;;;;5038152;28;20025;-74
2022/05/16 23:32:27;;;;;;;0.00;0.00;;;20.80;91.10;;;;;;5035675;28;20339;-72
2022/05/16 23:34:54;;;;;;;0.00;0.00;;;20.80;91.60;;;;;;5062686;28;20021;-71
2022/05/16 23:37:20;;;;;;;0.00;0.00;;;20.70;91.10;;;;;;5056576;28;20029;-71
2022/05/16 23:39:46;;;;;;;0.00;0.00;;;20.70;91.40;;;;;;5045553;28;20803;-71
2022/05/16 23:42:13;;;;;;;0.00;0.00;;;20.70;91.40;;;;;;5043016;28;20048;-70
2022/05/16 23:44:41;;;;;;;0.00;0.00;;;20.70;91.60;;;;;;5064085;28;20025;-73
2022/05/16 23:47:07;;;;;;;0.00;0.00;;;20.60;91.60;;;;;;5058175;28;20082;-72
2022/05/16 23:49:34;;;;;;;0.00;0.00;;;20.60;91.90;;;;;;5059816;28;20021;-72
2022/05/16 23:52:00;;;;;;;0.00;0.00;;;20.60;91.70;;;;;;5043408;28;20020;-73
2022/05/16 23:54:26;;;;;;;0.00;0.00;;;20.60;91.50;;;;;;5047776;28;20040;-72
2022/05/16 23:56:51;;;;;;;0.00;0.00;;;20.60;92.20;;;;;;5059151;28;20025;-72
2022/05/16 23:59:17;;;;;;;0.00;0.00;;;20.60;91.90;;;;;;5041627;28;20036;-73
